Linville, NC

8:01 PM EST on December 18, 2014 (GMT -0500)
Sugarvista | Change Station
CLOSE
Current Station
Personal Weather Station
Location: Newland, NC
Elevation: 4570 ft
Nearby Weather Stations

Elev 4570 ft 36.10 °N, 81.89 °W | Updated 15 seconds ago

Overcast
Overcast
30.7 °F
Feels Like 31 °F
N
2.4
Wind Variable Wind from NW
Gusts 2.8 mph

Today
High -- | Low -- °F
--% Chance of Precip.
Yesterday
High -- | Low -- °F
Precip. -- in
7:32 AM 5:15 PM
Waning Crescent, 11% visible
Pressure 30.08 in
Visibility 10.0 miles
Clouds Scattered Clouds 6000 ft
Windchill 31 °F
Dew Point 26 °F
Humidity 82%
Rainfall 0.00 in
Snow Depth Not available.
UV 0 out of 12
Pollen .10 out of 12
Air Quality Not available.
Flu Activity Not available.
METAR KTNB 190055Z AUTO 29005G08KT 10SM SCT060 02/M10 A3008 RMK AO2 T00201096

More Conditions Fewer Conditions

Pressure 30.08 in
Visibility 10.0 miles
Clouds Scattered Clouds 6000 ft
Windchill 31 °F
Dew Point 26 °F
Humidity 82%
Rainfall 0.00 in
Snow Depth Not available.
UV 0 out of 12
Pollen .10 out of 12
Air Quality Not available.
Flu Activity Not available.
METAR KTNB 190055Z AUTO 29005G08KT 10SM SCT060 02/M10 A3008 RMK AO2 T00201096

More Conditions Fewer Conditions

10-Day Weather Forecast

Almanac

Astronomy

Dec. 18, 2014 Rise Set
Actual Time
Civil Twilight
Nautical Twilight
Astronomical Twilight
Moon
Length of Visible Light
Length of Day
Tomorrow will be .
, % of the Moon is Illuminated

Today's Extremes

State Highs State Lows

Community

WunderPhotos

Upload Photos

1,779,031 photos uploaded!

WunderBlogs® & News

Nearby

Air Quality

  Air Quality AQ Index Pollutant
Not available.

Snow Depth

Station Depth Elevation

Earthquake Activity

City Distance Mag. Time & Date
Minimum magnitude displayed is 2.5.

Coastal Water Temperatures

Place Temperature

Nearby Weather Stations